Time;durP1;ratioP1;P1;durP2;ratioP2;P2;SDS_P1;SDS_P2;PMS_P1;PMS_P2;Temp;Humidity;BMP_temperature;BMP_pressure;BME280_temperature;BME280_humidity;BME280_pressure;Samples;Min_cycle;Max_cycle;Signal;HPM_P1;HPM_P2
2021/12/24 00:01:05;;;;;;;315.13;302.48;;;;;;;20.28;39.72;100350.47;5091739;28;20077;-84
2021/12/24 00:03:30;;;;;;;317.00;304.27;;;;;;;20.27;39.69;100343.38;5091586;28;20052;-84
2021/12/24 00:05:56;;;;;;;316.95;304.27;;;;;;;20.27;39.91;100346.91;5092943;28;20482;-84
2021/12/24 00:08:21;;;;;;;303.30;291.10;;;;;;;20.26;39.86;100350.81;5057636;28;20433;-84
2021/12/24 00:10:56;;;;;;;301.83;289.83;;;;;;;20.25;39.88;100340.94;5070123;28;20524;-83
2021/12/24 00:13:22;;;;;;;307.15;295.00;;;;;;;20.24;39.58;100333.84;5075535;28;20085;-83
2021/12/24 00:37:30;;;;;;;329.80;316.80;;;;;;;20.18;39.61;100317.84;5057013;28;20075;-84
2021/12/24 00:40:14;;;;;;;338.65;325.38;;;;;;;20.18;39.78;100320.59;5054383;28;20052;-84
2021/12/24 00:42:43;;;;;;;340.77;327.48;;;;;;;20.16;39.88;100323.66;5075082;28;20067;-83
2021/12/24 00:45:10;;;;;;;340.17;326.92;;;;;;;20.17;40.00;100319.78;5074265;28;20044;-84
2021/12/24 00:47:35;;;;;;;352.27;338.52;;;;;;;20.15;39.87;100319.28;5091657;28;20034;-84
2021/12/24 00:50:05;;;;;;;344.67;331.27;;;;;;;20.15;39.67;100321.22;5090638;28;20118;-84
2021/12/24 00:52:53;;;;;;;348.73;335.02;;;;;;;20.14;39.68;100317.69;5082834;28;20071;-84
2021/12/24 00:55:24;;;;;;;348.15;334.15;;;;;;;20.14;40.07;100311.41;5055073;28;20032;-84
2021/12/24 00:58:01;;;;;;;346.30;332.75;;;;;;;20.13;39.74;100304.28;5081818;28;20046;-83
2021/12/24 01:00:35;;;;;;;342.13;328.83;;;;;;;20.12;40.02;100311.72;5087026;28;20384;-83
2021/12/24 01:03:03;;;;;;;343.58;329.88;;;;;;;20.12;39.74;100306.22;5086376;28;20036;-84
2021/12/24 01:05:31;;;;;;;355.70;341.85;;;;;;;20.11;39.79;100307.34;5072471;28;20037;-85
2021/12/24 01:07:56;;;;;;;345.58;331.98;;;;;;;20.12;40.03;100299.94;5073152;28;20036;-85
2021/12/24 01:10:29;;;;;;;358.50;344.55;;;;;;;20.11;39.50;100310.09;5089753;28;20036;-84
2021/12/24 01:12:54;;;;;;;357.10;343.00;;;;;;;20.12;39.80;100319.13;5078678;28;20461;-85
2021/12/24 01:15:20;;;;;;;363.50;349.35;;;;;;;20.09;39.75;100307.66;5090430;28;20028;-84
2021/12/24 01:20:25;;;;;;;371.90;357.10;;;;;;;20.10;39.75;100313.94;5072119;28;20051;-84
2021/12/24 01:26:14;;;;;;;373.13;358.67;;;;;;;20.09;39.63;100306.84;5040030;28;20040;-83
2021/12/24 01:39:40;;;;;;;385.48;370.58;;;;;;;20.06;39.53;100310.25;5080204;28;20106;-84
2021/12/24 01:44:52;;;;;;;393.02;377.70;;;;;;;20.04;39.65;100301.53;5081728;28;20048;-83
2021/12/24 01:47:17;;;;;;;397.27;382.00;;;;;;;20.03;39.60;100308.09;5070708;28;20028;-84
2021/12/24 01:49:43;;;;;;;404.25;388.42;;;;;;;20.03;39.97;100306.19;5087832;28;20457;-84
2021/12/24 01:52:08;;;;;;;408.45;392.73;;;;;;;20.02;39.68;100296.34;5071478;28;20571;-84
2021/12/24 01:54:34;;;;;;;419.65;403.60;;;;;;;20.02;39.73;100293.59;5090528;28;20036;-83
2021/12/24 01:57:00;;;;;;;428.17;411.73;;;;;;;20.02;39.85;100304.56;5089318;28;20131;-82
2021/12/24 01:59:26;;;;;;;439.45;422.60;;;;;;;20.03;39.93;100289.75;5070032;28;20043;-86
2021/12/24 02:01:51;;;;;;;436.67;420.00;;;;;;;20.03;39.80;100299.88;5086311;28;20036;-83
2021/12/24 02:04:18;;;;;;;441.95;424.98;;;;;;;20.02;39.70;100293.59;5083959;28;20063;-84
2021/12/24 02:06:45;;;;;;;444.20;427.05;;;;;;;20.02;39.85;100298.28;5073797;28;20033;-84
2021/12/24 02:09:10;;;;;;;453.08;435.77;;;;;;;20.02;39.81;100301.81;5067067;28;20028;-82
2021/12/24 02:11:38;;;;;;;468.25;450.55;;;;;;;20.02;40.04;100307.31;5091952;28;20036;-83
2021/12/24 02:14:06;;;;;;;475.95;457.80;;;;;;;20.02;40.07;100301.03;5064778;28;20374;-83
2021/12/24 02:29:58;;;;;;;531.03;510.55;;;;;;;19.99;39.90;100299.72;5092903;28;20039;-82
2021/12/24 02:32:23;;;;;;;532.05;511.75;;;;;;;19.98;39.69;100303.59;5093809;28;20024;-82
2021/12/24 02:34:49;;;;;;;532.80;512.35;;;;;;;19.99;40.09;100296.19;5089755;28;20032;-82
2021/12/24 02:37:15;;;;;;;546.85;525.95;;;;;;;19.98;40.06;100306.34;5107318;28;20032;-84
2021/12/24 02:39:41;;;;;;;559.22;537.88;;;;;;;19.97;40.13;100301.97;5076314;28;20468;-83
2021/12/24 02:42:18;;;;;;;567.08;545.35;;;;;;;19.98;39.79;100302.78;5094183;28;20039;-83
2021/12/24 02:44:45;;;;;;;566.78;544.85;;;;;;;19.97;39.87;100301.97;5094284;28;20063;-83
2021/12/24 02:47:36;;;;;;;575.90;553.72;;;;;;;19.97;39.98;100284.72;5066678;28;20029;-84
2021/12/24 02:55:27;;;;;;;611.60;588.10;;;;;;;19.96;40.24;100294.03;5051628;28;20052;-83
2021/12/24 02:57:52;;;;;;;618.70;594.95;;;;;;;19.95;40.17;100292.44;5070417;28;20055;-84
2021/12/24 03:00:25;;;;;;;623.60;599.45;;;;;;;19.94;40.17;100285.34;5072699;28;20077;-83
2021/12/24 03:02:52;;;;;;;625.10;600.83;;;;;;;19.93;40.23;100284.53;5076774;28;20039;-83
2021/12/24 03:05:19;;;;;;;638.17;613.58;;;;;;;19.93;40.04;100287.25;5092351;28;20396;-87
2021/12/24 03:07:45;;;;;;;639.60;614.97;;;;;;;19.92;40.10;100282.91;5092613;28;20039;-83
2021/12/24 03:10:12;;;;;;;644.20;619.25;;;;;;;19.93;39.72;100286.47;5069629;28;20032;-83
2021/12/24 03:12:38;;;;;;;642.95;618.15;;;;;;;19.93;40.08;100297.44;5084293;28;20043;-83
2021/12/24 03:15:05;;;;;;;645.00;620.05;;;;;;;19.93;40.34;100286.47;5072461;28;20476;-83
2021/12/24 03:17:32;;;;;;;648.88;623.72;;;;;;;19.91;40.24;100289.53;5089162;28;20085;-83
2021/12/24 03:20:03;;;;;;;646.97;621.83;;;;;;;19.92;39.97;100282.13;5092300;28;20149;-83
2021/12/24 03:25:00;;;;;;;661.10;635.28;;;;;;;19.90;40.25;100290.66;5092035;28;20028;-83
2021/12/24 03:27:25;;;;;;;660.70;635.10;;;;;;;19.91;40.11;100292.28;5088548;28;20503;-83
2021/12/24 03:29:52;;;;;;;662.78;636.80;;;;;;;19.89;40.53;100298.06;5073117;28;20044;-83
2021/12/24 03:32:17;;;;;;;657.63;632.00;;;;;;;19.89;40.31;100298.06;5081424;28;20025;-85
2021/12/24 03:34:43;;;;;;;664.80;639.15;;;;;;;19.89;40.16;100300.81;5079875;28;20041;-86
2021/12/24 03:37:09;;;;;;;673.80;647.45;;;;;;;19.89;40.27;100297.25;5073220;28;20036;-85
2021/12/24 03:39:35;;;;;;;676.30;649.95;;;;;;;19.89;40.27;100297.25;5068393;28;20461;-85
2021/12/24 03:42:02;;;;;;;670.40;644.22;;;;;;;19.88;40.37;100301.94;5091481;28;20035;-84
2021/12/24 03:44:35;;;;;;;677.35;650.92;;;;;;;19.88;40.25;100293.72;5091930;28;20059;-84
2021/12/24 03:47:13;;;;;;;673.88;647.53;;;;;;;19.87;40.62;100297.56;5092205;28;20042;-85
2021/12/24 03:55:00;;;;;;;689.90;662.78;;;;;;;19.86;39.98;100298.72;5085223;28;20158;-84
2021/12/24 03:57:30;;;;;;;687.47;660.50;;;;;;;19.85;40.46;100297.06;5108480;28;20111;-86
2021/12/24 04:00:10;;;;;;;690.30;663.22;;;;;;;19.86;40.32;100301.44;5091186;28;20040;-85
2021/12/24 04:02:35;;;;;;;684.53;657.80;;;;;;;19.84;40.35;100300.94;5085681;28;20094;-85
2021/12/24 04:05:01;;;;;;;677.03;650.40;;;;;;;19.84;40.61;100292.72;5080238;28;20430;-85
2021/12/24 04:07:26;;;;;;;688.38;661.60;;;;;;;19.84;40.36;100295.47;5089325;28;20438;-84
2021/12/24 04:10:23;;;;;;;687.08;660.35;;;;;;;19.83;40.01;100293.88;5084056;28;20042;-85
2021/12/24 04:12:37;;;;;;;684.40;657.75;;;;;;;19.83;40.43;100298.50;5065458;28;20539;-86
2021/12/24 04:15:03;;;;;;;688.05;661.20;;;;;;;19.83;40.36;100310.31;5068069;28;20132;-85
2021/12/24 04:17:31;;;;;;;678.63;652.28;;;;;;;19.83;40.22;100312.22;5082549;28;20036;-86
2021/12/24 04:25:27;;;;;;;692.17;665.03;;;;;;;19.81;40.24;100309.81;5077437;28;20046;-85
2021/12/24 04:27:57;;;;;;;709.30;681.22;;;;;;;19.81;40.11;100300.78;5073690;28;20400;-85
2021/12/24 04:30:27;;;;;;;700.70;673.15;;;;;;;19.81;40.34;100301.59;5091189;28;20407;-83
2021/12/24 04:35:56;;;;;;;710.88;682.80;;;;;;;19.80;40.48;100310.13;5080588;28;20112;-82
2021/12/24 04:51:48;;;;;;;776.05;744.00;;;;;;;19.78;40.42;100299.47;5078617;28;20400;-86
2021/12/24 05:02:41;;;;;;;814.17;779.45;;;;;;;19.74;40.51;100293.00;5075068;28;20090;-84
2021/12/24 05:05:37;;;;;;;825.63;789.97;;;;;;;19.75;40.48;100297.34;5078842;28;20055;-85
2021/12/24 05:08:16;;;;;;;847.20;810.10;;;;;;;19.74;40.68;100297.69;5093326;28;20481;-92
2021/12/24 05:10:41;;;;;;;843.25;806.45;;;;;;;19.73;40.44;100296.88;5068431;28;20032;-85
2021/12/24 05:13:09;;;;;;;863.67;825.45;;;;;;;19.73;40.40;100307.84;5073837;28;20472;-84
2021/12/24 05:15:39;;;;;;;877.55;838.28;;;;;;;19.73;40.38;100304.28;5090927;28;20115;-84
2021/12/24 05:23:18;;;;;;;867.30;829.40;;;;;;;19.73;40.67;100307.84;5073938;28;20051;-84
2021/12/24 05:25:45;;;;;;;865.53;827.83;;;;;;;19.71;40.36;100303.81;5071071;28;20029;-84
2021/12/24 05:28:12;;;;;;;873.28;834.67;;;;;;;19.71;40.63;100303.81;5074116;28;20461;-84
2021/12/24 05:30:38;;;;;;;874.28;835.58;;;;;;;19.71;40.62;100304.59;5091848;28;20036;-84
2021/12/24 05:33:04;;;;;;;880.67;841.53;;;;;;;19.71;40.50;100312.81;5070501;28;20078;-84
2021/12/24 05:35:29;;;;;;;899.92;858.83;;;;;;;19.71;40.56;100306.53;5084752;28;20060;-85
2021/12/24 05:37:55;;;;;;;908.08;865.85;;;;;;;19.70;40.63;100311.19;5067869;28;20035;-87
2021/12/24 05:40:21;;;;;;;912.67;870.28;;;;;;;19.70;40.56;100310.38;5069618;28;20800;-84
2021/12/24 05:42:46;;;;;;;900.08;859.00;;;;;;;19.69;40.66;100312.31;5089744;28;20422;-83
2021/12/24 05:45:11;;;;;;;904.80;863.20;;;;;;;19.69;40.46;100317.81;5072790;28;20509;-85
2021/12/24 05:47:37;;;;;;;907.65;865.72;;;;;;;19.69;40.69;100322.47;5093504;28;20551;-84
2021/12/24 05:50:05;;;;;;;906.05;864.35;;;;;;;19.69;40.53;100317.00;5084494;28;20028;-85
2021/12/24 05:52:31;;;;;;;896.00;855.28;;;;;;;19.67;40.79;100323.59;5090900;28;20492;-84
2021/12/24 05:54:58;;;;;;;894.78;854.20;;;;;;;19.68;40.61;100332.63;5084117;28;20039;-84
2021/12/24 05:57:23;;;;;;;894.30;853.60;;;;;;;19.68;40.71;100327.16;5085208;28;20035;-84
2021/12/24 05:59:49;;;;;;;895.60;854.90;;;;;;;19.67;40.87;100317.31;5057672;28;20036;-84
2021/12/24 06:02:14;;;;;;;902.58;861.22;;;;;;;19.67;40.55;100325.53;5086000;28;20399;-82
2021/12/24 06:04:40;;;;;;;905.58;864.03;;;;;;;19.66;40.69;100323.88;5074818;28;20043;-85
2021/12/24 06:07:05;;;;;;;906.72;865.17;;;;;;;19.66;40.79;100315.66;5090438;28;20391;-83
2021/12/24 06:09:31;;;;;;;896.58;855.97;;;;;;;19.66;40.54;100321.16;5067794;28;20036;-85
2021/12/24 06:11:56;;;;;;;906.88;865.15;;;;;;;19.63;40.64;100319.84;5083083;28;20032;-85
2021/12/24 06:14:22;;;;;;;902.72;861.33;;;;;;;19.64;40.46;100318.72;5087486;28;20071;-86
2021/12/24 06:16:50;;;;;;;892.40;852.20;;;;;;;19.64;40.75;100323.38;5093991;28;20082;-85
2021/12/24 06:19:17;;;;;;;897.70;856.90;;;;;;;19.64;40.78;100323.38;5086230;28;20123;-84
2021/12/24 06:21:44;;;;;;;902.92;861.67;;;;;;;19.63;40.84;100321.75;5090392;28;20329;-84
2021/12/24 06:24:10;;;;;;;903.53;862.25;;;;;;;19.65;40.68;100325.00;5082420;28;20024;-84
2021/12/24 06:26:35;;;;;;;902.30;861.00;;;;;;;19.64;40.53;100332.41;5092200;28;20036;-85
2021/12/24 06:29:01;;;;;;;898.35;857.63;;;;;;;19.63;40.57;100336.28;5093804;28;20392;-85
2021/12/24 06:31:26;;;;;;;910.17;868.35;;;;;;;19.63;40.53;100329.97;5092943;28;20118;-81
2021/12/24 06:33:52;;;;;;;898.13;856.83;;;;;;;19.62;40.84;100328.38;5092962;28;20047;-81
2021/12/24 06:36:17;;;;;;;905.70;864.13;;;;;;;19.62;40.54;100328.38;5090407;28;20032;-80
2021/12/24 06:38:43;;;;;;;897.25;853.92;;;;;;;19.64;41.00;100326.13;5059850;28;20101;-87
2021/12/24 06:41:09;;;;;;;902.70;860.03;;;;;;;19.67;40.95;100325.53;5093198;28;20430;-85
2021/12/24 06:43:35;;;;;;;907.83;863.95;;;;;;;19.67;41.45;100325.53;5084692;28;20034;-85
2021/12/24 06:46:08;;;;;;;908.20;864.78;;;;;;;19.67;41.48;100325.53;5094333;28;20036;-86
2021/12/24 06:48:33;;;;;;;917.00;873.50;;;;;;;19.67;41.89;100328.25;5067217;28;20502;-85
2021/12/24 06:50:59;;;;;;;914.45;870.60;;;;;;;19.67;41.88;100325.53;5078161;28;20074;-84
2021/12/24 06:53:24;;;;;;;907.42;864.42;;;;;;;19.66;42.06;100323.88;5076487;28;20044;-86
2021/12/24 06:55:49;;;;;;;908.22;865.30;;;;;;;19.65;41.92;100320.34;5093071;28;20122;-84
2021/12/24 06:58:15;;;;;;;913.38;870.08;;;;;;;19.65;41.95;100323.09;5091899;28;20396;-88
2021/12/24 07:00:40;;;;;;;914.63;871.22;;;;;;;19.65;42.00;100325.00;5093780;28;20400;-87
2021/12/24 07:03:06;;;;;;;921.45;877.47;;;;;;;19.63;41.97;100324.50;5065176;28;20038;-87
2021/12/24 07:05:31;;;;;;;915.60;871.70;;;;;;;19.62;41.97;100323.69;5056428;28;20497;-85
2021/12/24 07:07:57;;;;;;;914.45;871.22;;;;;;;19.62;41.82;100328.38;5090937;28;20044;-86
2021/12/24 07:10:22;;;;;;;925.97;881.25;;;;;;;19.62;41.77;100325.63;5092370;28;20027;-84
2021/12/24 07:12:47;;;;;;;930.30;885.33;;;;;;;19.61;41.66;100324.81;5093118;28;20043;-87
2021/12/24 07:15:13;;;;;;;924.72;880.35;;;;;;;19.61;41.90;100324.03;5056721;28;20549;-85
2021/12/24 07:17:38;;;;;;;926.35;881.50;;;;;;;19.60;41.78;100319.66;5072903;28;20035;-86
2021/12/24 07:20:05;;;;;;;944.80;897.50;;;;;;;19.58;41.68;100310.94;5081401;28;20024;-86
2021/12/24 07:22:30;;;;;;;935.58;889.58;;;;;;;19.58;41.61;100308.19;5089309;28;20060;-85
2021/12/24 07:24:56;;;;;;;939.70;893.53;;;;;;;19.57;42.04;100298.38;5078723;28;20380;-85
2021/12/24 07:27:21;;;;;;;936.97;890.83;;;;;;;19.58;41.80;100305.44;5069703;28;20099;-90
2021/12/24 07:29:46;;;;;;;934.30;887.95;;;;;;;19.57;41.88;100314.81;5097463;28;20452;-85
2021/12/24 07:32:12;;;;;;;939.22;892.38;;;;;;;19.57;42.12;100320.28;5091896;28;20089;-85
2021/12/24 07:34:37;;;;;;;941.97;894.78;;;;;;;19.57;41.62;100321.06;5092088;28;20031;-83
2021/12/24 07:37:03;;;;;;;941.58;893.75;;;;;;;19.56;41.81;100322.22;5075679;28;20456;-86
2021/12/24 07:39:29;;;;;;;929.38;884.42;;;;;;;19.55;41.73;100330.72;5091837;28;20028;-84
2021/12/24 07:41:54;;;;;;;929.85;884.28;;;;;;;19.54;41.78;100329.94;5078696;28;20033;-84
2021/12/24 07:44:20;;;;;;;926.40;881.10;;;;;;;19.54;41.87;100321.72;5084791;28;20043;-84
2021/12/24 07:46:51;;;;;;;923.60;878.50;;;;;;;19.54;41.60;100329.94;5074735;28;20035;-85
2021/12/24 07:49:30;;;;;;;923.25;877.97;;;;;;;19.54;41.75;100326.38;5083566;28;20020;-85
2021/12/24 07:54:27;;;;;;;919.20;874.28;;;;;;;19.53;41.70;100333.81;5092334;28;20044;-86
2021/12/24 07:56:53;;;;;;;926.60;881.10;;;;;;;19.52;41.87;100323.94;5072145;28;20115;-82
2021/12/24 07:59:18;;;;;;;919.85;874.85;;;;;;;19.51;41.69;100325.09;5090131;28;20472;-82
2021/12/24 08:01:46;;;;;;;922.80;877.30;;;;;;;19.52;42.08;100329.44;5090095;28;20630;-83
2021/12/24 08:04:12;;;;;;;910.40;866.45;;;;;;;19.51;41.96;100321.53;5091562;28;20195;-83
2021/12/24 08:06:38;;;;;;;918.55;873.53;;;;;;;19.50;41.85;100333.59;5091735;28;20077;-82
2021/12/24 08:09:07;;;;;;;906.70;864.80;;;;;;;19.49;42.05;100319.09;5071151;28;20032;-81
2021/12/24 08:11:36;;;;;;;917.65;874.40;;;;;;;19.49;42.29;100323.78;5078046;28;20460;-83
2021/12/24 08:14:02;;;;;;;899.58;858.33;;;;;;;19.49;42.60;100324.59;5081914;28;20035;-83
2021/12/24 08:16:29;;;;;;;894.42;854.05;;;;;;;19.47;42.66;100321.34;5073734;28;20040;-83
2021/12/24 08:18:55;;;;;;;898.22;857.05;;;;;;;19.46;42.58;100333.44;5092314;28;20028;-79
2021/12/24 08:21:21;;;;;;;901.10;859.78;;;;;;;19.43;42.93;100329.38;5084071;28;20135;-80
2021/12/24 08:23:47;;;;;;;900.95;860.20;;;;;;;19.44;43.03;100332.94;5081795;28;20511;-79
2021/12/24 08:26:13;;;;;;;908.20;866.45;;;;;;;19.45;42.94;100326.31;5092282;28;20028;-79
2021/12/24 08:28:39;;;;;;;914.33;871.97;;;;;;;19.46;42.96;100325.22;5085489;28;20043;-79
2021/12/24 08:31:05;;;;;;;908.88;866.67;;;;;;;19.46;43.02;100328.75;5082430;28;20040;-79
2021/12/24 08:33:33;;;;;;;902.20;860.97;;;;;;;19.48;43.11;100327.63;5084594;28;20035;-79
2021/12/24 08:35:59;;;;;;;899.85;858.97;;;;;;;19.51;43.57;100329.75;5079356;28;20136;-80
2021/12/24 08:38:24;;;;;;;897.78;857.10;;;;;;;19.53;43.36;100328.31;5074834;28;20040;-82
2021/12/24 08:40:49;;;;;;;890.63;850.55;;;;;;;19.56;43.66;100321.41;5084425;28;20040;-81
2021/12/24 08:43:15;;;;;;;894.85;854.20;;;;;;;19.59;43.44;100320.78;5070952;28;20036;-80
2021/12/24 08:45:40;;;;;;;899.25;858.78;;;;;;;19.60;43.67;100314.16;5070517;28;20453;-81
2021/12/24 08:48:06;;;;;;;899.83;859.05;;;;;;;19.63;43.53;100321.75;5082452;28;20498;-81
2021/12/24 08:50:31;;;;;;;897.47;856.80;;;;;;;19.65;43.92;100320.34;5067679;28;20045;-78
2021/12/24 08:52:56;;;;;;;898.85;858.13;;;;;;;19.68;43.82;100313.47;5088116;28;20036;-79
2021/12/24 08:55:22;;;;;;;900.45;859.38;;;;;;;19.69;43.62;100317.81;5079822;28;20043;-86
2021/12/24 08:57:47;;;;;;;900.25;859.45;;;;;;;19.71;43.65;100317.50;5088538;28;20027;-79
2021/12/24 09:00:14;;;;;;;903.75;862.72;;;;;;;19.71;43.58;100315.56;5074066;28;20032;-81
2021/12/24 09:02:40;;;;;;;898.28;857.50;;;;;;;19.72;43.22;100317.16;5086724;28;20063;-80
2021/12/24 09:05:09;;;;;;;899.35;858.60;;;;;;;19.75;43.46;100323.94;5081647;28;20520;-80
2021/12/24 09:07:35;;;;;;;901.60;860.53;;;;;;;19.75;43.35;100316.53;5085525;28;20121;-87
2021/12/24 09:10:01;;;;;;;904.90;863.90;;;;;;;19.78;43.34;100324.16;5070460;28;20035;-80
2021/12/24 09:12:26;;;;;;;907.15;865.08;;;;;;;19.80;43.58;100315.59;5070871;28;20052;-83
2021/12/24 09:14:53;;;;;;;897.85;856.67;;;;;;;19.80;43.83;100324.63;5066335;28;20040;-83
2021/12/24 09:17:20;;;;;;;899.63;857.97;;;;;;;19.81;43.85;100318.03;5074421;28;20037;-84
2021/12/24 09:19:49;;;;;;;898.60;856.58;;;;;;;19.82;43.37;100310.63;5082047;28;20566;-82
2021/12/24 09:22:17;;;;;;;904.30;863.00;;;;;;;19.82;43.43;100313.34;5096045;28;20040;-81
2021/12/24 09:24:45;;;;;;;894.20;853.17;;;;;;;19.84;43.56;100313.84;5094401;28;20032;-81
2021/12/24 09:27:11;;;;;;;905.00;863.83;;;;;;;19.85;43.58;100318.19;5095380;28;20034;-81
2021/12/24 09:29:36;;;;;;;908.75;867.17;;;;;;;19.85;43.62;100318.19;5082858;28;20127;-81
2021/12/24 09:32:03;;;;;;;905.05;863.33;;;;;;;19.85;43.60;100316.25;5108876;28;20035;-82
2021/12/24 09:34:28;;;;;;;904.67;863.05;;;;;;;19.85;43.57;100321.75;5082090;28;20048;-81
2021/12/24 09:36:54;;;;;;;902.95;861.65;;;;;;;19.86;43.81;100320.63;5090351;28;20029;-81
2021/12/24 09:39:20;;;;;;;903.08;861.67;;;;;;;19.84;43.75;100317.41;5077565;28;20411;-80
2021/12/24 09:41:46;;;;;;;902.40;861.22;;;;;;;19.85;43.07;100309.97;5074513;28;20538;-80
2021/12/24 09:44:12;;;;;;;898.67;857.67;;;;;;;19.85;43.18;100321.75;5093287;28;20049;-80
2021/12/24 09:46:42;;;;;;;898.60;857.78;;;;;;;19.85;43.35;100310.78;5086725;28;20469;-83
2021/12/24 09:49:08;;;;;;;901.75;860.33;;;;;;;19.85;43.14;100312.72;5086407;28;20041;-83
2021/12/24 09:51:39;;;;;;;897.67;856.45;;;;;;;19.85;43.48;100313.50;5102711;28;20044;-85
2021/12/24 09:54:12;;;;;;;901.70;860.40;;;;;;;19.87;43.36;100305.00;5076481;28;20041;-83
2021/12/24 09:56:38;;;;;;;894.30;853.63;;;;;;;19.88;43.27;100307.44;5073442;28;20024;-86
2021/12/24 09:59:04;;;;;;;907.70;865.58;;;;;;;19.88;43.43;100303.84;5073461;28;20067;-83
2021/12/24 10:01:40;;;;;;;895.50;854.92;;;;;;;19.88;43.67;100310.16;5072664;28;20056;-83
2021/12/24 10:04:13;;;;;;;901.72;860.17;;;;;;;19.91;43.81;100308.72;5081867;28;20036;-82
2021/12/24 10:06:47;;;;;;;898.50;857.95;;;;;;;19.93;43.93;100311.13;5073101;28;20060;-79
2021/12/24 10:09:13;;;;;;;900.53;859.55;;;;;;;19.94;44.57;100308.09;5092031;28;20043;-80
2021/12/24 10:11:47;;;;;;;901.05;859.95;;;;;;;19.95;44.67;100308.91;5090143;28;20040;-79
2021/12/24 10:14:14;;;;;;;903.75;862.00;;;;;;;19.96;44.52;100308.59;5080992;28;20414;-80
2021/12/24 10:16:48;;;;;;;905.05;863.72;;;;;;;19.97;44.60;100318.41;5092096;28;20032;-78
2021/12/24 10:19:15;;;;;;;900.63;859.47;;;;;;;19.98;44.57;100314.56;5087624;28;20036;-79
2021/12/24 10:21:41;;;;;;;902.75;861.40;;;;;;;19.98;44.12;100321.97;5087133;28;20036;-78
2021/12/24 10:24:16;;;;;;;901.28;859.60;;;;;;;19.99;44.03;100318.13;5100338;28;20031;-79
2021/12/24 10:26:52;;;;;;;906.05;864.03;;;;;;;19.98;44.13;100311.00;5079098;28;20036;-78
2021/12/24 10:29:20;;;;;;;899.63;858.53;;;;;;;19.99;44.21;100312.63;5088265;28;20107;-83
2021/12/24 10:31:53;;;;;;;896.60;855.47;;;;;;;19.99;43.75;100312.63;5087991;28;20039;-79
2021/12/24 10:34:44;;;;;;;901.00;859.85;;;;;;;20.00;43.79;100304.06;5089103;28;20032;-78
2021/12/24 10:37:24;;;;;;;897.83;857.13;;;;;;;19.99;43.62;100304.41;5090147;28;20081;-78
2021/12/24 10:40:00;;;;;;;900.22;859.03;;;;;;;20.00;43.88;100301.31;5084834;28;20027;-78
2021/12/24 10:42:37;;;;;;;906.28;864.55;;;;;;;20.00;43.82;100301.31;5081925;28;20028;-78
2021/12/24 10:45:10;;;;;;;911.72;869.25;;;;;;;20.00;43.79;100295.03;5073557;28;20157;-78
2021/12/24 10:47:40;;;;;;;904.08;862.45;;;;;;;20.00;43.73;100295.84;5077817;28;20032;-79
2021/12/24 10:55:30;;;;;;;903.33;861.92;;;;;;;20.01;43.50;100282.97;5079871;28;20127;-80
2021/12/24 10:57:59;;;;;;;901.42;860.15;;;;;;;20.01;43.54;100280.22;5085689;28;20395;-81
2021/12/24 11:00:30;;;;;;;902.13;860.80;;;;;;;20.02;43.75;100268.13;5088557;28;20031;-80
2021/12/24 11:02:59;;;;;;;907.88;866.05;;;;;;;20.03;43.61;100267.81;5088214;28;20107;-81
2021/12/24 11:05:24;;;;;;;;;;;;;;;20.03;43.59;100267.00;5087297;28;20151;-80
2021/12/24 11:07:50;;;;;;;893.90;853.17;;;;;;;20.03;43.48;100267.81;5089401;28;20534;-80
2021/12/24 11:10:19;;;;;;;903.58;862.28;;;;;;;20.04;43.57;100268.63;5081021;28;20038;-80
2021/12/24 11:13:10;;;;;;;909.95;868.45;;;;;;;20.04;43.60;100271.38;5087788;28;20027;-81
2021/12/24 11:15:40;;;;;;;901.40;860.28;;;;;;;20.03;43.59;100272.47;5077711;28;20024;-80
2021/12/24 11:18:08;;;;;;;905.67;864.25;;;;;;;20.05;43.69;100272.97;5085925;28;20089;-80
2021/12/24 11:20:35;;;;;;;908.08;866.30;;;;;;;20.06;43.51;100266.38;5082486;28;20474;-81
2021/12/24 11:23:10;;;;;;;910.00;867.90;;;;;;;20.05;43.51;100271.03;5088901;28;20104;-81
2021/12/24 11:25:47;;;;;;;901.70;860.70;;;;;;;20.06;43.43;100277.34;5082896;28;20028;-81
2021/12/24 11:28:14;;;;;;;906.40;864.70;;;;;;;20.06;43.25;100269.91;5081734;28;20047;-81
2021/12/24 11:30:43;;;;;;;908.40;866.42;;;;;;;20.08;43.36;100273.16;5074296;28;20127;-84
2021/12/24 11:33:14;;;;;;;899.95;858.88;;;;;;;20.08;43.43;100275.06;5081028;28;20024;-80
2021/12/24 11:35:40;;;;;;;909.45;867.55;;;;;;;20.09;43.44;100276.69;5085998;28;20476;-81
2021/12/24 11:38:06;;;;;;;910.97;868.83;;;;;;;20.08;43.27;100275.91;5088250;28;20033;-80
2021/12/24 11:40:31;;;;;;;908.70;866.75;;;;;;;20.09;43.04;100279.44;5090927;28;20038;-82
2021/12/24 11:43:03;;;;;;;903.38;862.00;;;;;;;20.09;43.43;100279.44;5087707;28;20046;-81
2021/12/24 11:45:30;;;;;;;913.00;870.85;;;;;;;20.10;43.55;100278.31;5074187;28;20028;-80
2021/12/24 11:47:56;;;;;;;912.13;870.05;;;;;;;20.10;43.39;100281.84;5074207;28;20686;-81
2021/12/24 11:50:23;;;;;;;911.13;869.17;;;;;;;20.10;43.29;100279.09;5079456;28;20103;-83
2021/12/24 11:52:51;;;;;;;906.40;864.88;;;;;;;20.10;43.23;100278.31;5081184;28;20036;-80
2021/12/24 11:55:19;;;;;;;905.57;864.23;;;;;;;20.12;43.50;100283.47;5070041;28;20461;-82
2021/12/24 11:57:57;;;;;;;907.90;866.17;;;;;;;20.12;43.43;100275.25;5077943;28;20032;-85
2021/12/24 12:00:35;;;;;;;909.03;867.40;;;;;;;20.12;43.36;100280.75;5080374;28;20286;-79
2021/12/24 12:03:00;;;;;;;;;;;;;;;20.12;43.53;100280.75;5085973;28;20101;-83
2021/12/24 12:05:35;;;;;;;898.63;858.20;;;;;;;20.12;43.39;100280.75;5088481;28;20375;-83
2021/12/24 12:08:23;;;;;;;903.15;862.05;;;;;;;20.12;43.75;100276.06;5076032;28;20532;-79
2021/12/24 12:10:51;;;;;;;897.75;856.80;;;;;;;20.13;43.51;100272.19;5076103;28;20463;-79
2021/12/24 12:13:38;;;;;;;905.90;864.25;;;;;;;20.13;43.71;100277.66;5084575;28;20047;-79
2021/12/24 12:16:04;;;;;;;903.65;862.03;;;;;;;20.13;43.59;100269.44;5081351;28;20036;-80
2021/12/24 12:18:33;;;;;;;910.55;868.63;;;;;;;20.10;43.42;100262.66;5073865;28;20060;-80
2021/12/24 12:21:09;;;;;;;909.10;866.97;;;;;;;20.09;43.53;100272.03;5084514;28;20125;-80
2021/12/24 12:23:48;;;;;;;909.20;867.20;;;;;;;20.09;43.71;100268.47;5086369;28;20103;-80
2021/12/24 12:26:37;;;;;;;907.15;865.55;;;;;;;20.08;43.81;100269.59;5081225;28;20056;-81
2021/12/24 12:29:20;;;;;;;908.13;866.33;;;;;;;20.07;43.81;100268.78;5079666;28;20492;-80
2021/12/24 12:31:49;;;;;;;900.50;859.35;;;;;;;20.06;43.64;100261.69;5084165;28;20031;-80
2021/12/24 12:34:37;;;;;;;906.35;864.97;;;;;;;20.06;43.56;100269.13;5085158;28;20043;-80
2021/12/24 12:37:17;;;;;;;904.80;863.45;;;;;;;20.06;43.62;100266.38;5092522;28;20039;-80
2021/12/24 12:39:45;;;;;;;902.40;861.40;;;;;;;20.06;43.58;100263.63;5083007;28;20461;-87
2021/12/24 12:42:13;;;;;;;905.85;863.70;;;;;;;20.05;43.83;100271.03;5083419;28;20036;-79
2021/12/24 12:44:45;;;;;;;904.42;862.95;;;;;;;20.05;43.49;100267.47;5063310;28;20028;-79
2021/12/24 12:47:16;;;;;;;904.92;863.83;;;;;;;20.04;43.53;100261.19;5075730;28;20129;-79
2021/12/24 12:49:42;;;;;;;898.55;857.58;;;;;;;20.05;43.57;100267.47;5071671;28;20237;-81
2021/12/24 12:52:19;;;;;;;912.75;870.45;;;;;;;20.04;43.51;100263.94;5077158;28;20497;-80